Fortunia — V2OG3 — position and weather

sailwx.info

Track history (hours):
 
Tides and Currents Weather Stations Pressure Air Temp Water Temp Dewpoint Dewpoint Depression Visibility Wind Speed Wind Dir Waves Ship Positions

Fortunia

Last reported at 2014-Nov-25 17:03 UTC. Time now 2014-Nov-26 08:58 UTC.
Position N 41°15' E 002°10'.

Length 121 m; draft 6.1 m.

Type: Ship. MMSI: 304010638.

Date/timePositionNaut miles runAvg speedWind from/ knotsBaromVisibWave heightAir tempDewpointWater temp
2014-Nov-25 17:03N 41°15' E 002°10'611.4
2014-Nov-25 16:33N 41°10' E 002°06'1111.3
2014-Nov-25 15:33N 40°60' E 001°60'1111.5
2014-Nov-25 14:33N 40°50' E 001°53'1211.8
2014-Nov-25 13:33N 40°39' E 001°46'1211.7
2014-Nov-25 12:33N 40°29' E 001°39'1211.7
2014-Nov-25 11:33N 40°18' E 001°32'1111.5
2014-Nov-25 10:34N 40°08' E 001°25'1211.5
2014-Nov-25 09:33N 39°58' E 001°18'1111.5
2014-Nov-25 08:33N 39°48' E 001°11'12511.3
2014-Nov-24 21:27N 37°59' W 000°09'1210.9
2014-Nov-24 20:20N 37°49' W 000°18'810.8
2014-Nov-24 19:33N 37°42' W 000°24'1310.9
2014-Nov-24 18:19N 37°32' W 000°34'810.6
2014-Nov-24 17:33N 37°30' W 000°44'10 9.7
2014-Nov-24 16:34N 37°32' W 000°56'4 4.4
2014-Nov-24 15:33N 37°36' W 000°59'0 0.0
2014-Nov-24 14:26N 37°36' W 000°59'0 0.0
2014-Nov-23 18:32N 37°36' W 000°59'0 0.0
2014-Nov-23 17:32N 37°36' W 000°59'0 0.0
2014-Nov-23 16:32N 37°36' W 000°59'1 0.7
2014-Nov-23 15:33N 37°35' W 000°59'9 8.7
2014-Nov-23 14:33N 37°30' W 000°50'1111.6
2014-Nov-23 13:33N 37°28' W 000°35'1211.6
2014-Nov-23 12:33N 37°26' W 000°21'1311.4
2014-Nov-23 11:22N 37°23' W 000°05'911.2
2014-Nov-23 10:33N 37°21' E 000°07'1210.9
2014-Nov-23 09:29N 37°18' E 000°21'1110.9
2014-Nov-23 08:30N 37°16' E 000°34'1110.9
2014-Nov-23 07:27N 37°14' E 000°48'  
2014-Nov-19 11:33N 36°46' E 003°04'2 0.5
2014-Nov-19 08:04N 36°46' E 003°07'0 0.0
2014-Nov-19 06:33N 36°46' E 003°07'  
2014-Nov-16 10:33N 38°52' E 002°24'1010.2
2014-Nov-16 09:33N 39°01' E 002°20'1010.0
2014-Nov-16 08:33N 39°11' E 002°17'1010.1
2014-Nov-16 07:33N 39°21' E 002°14'1110.0
2014-Nov-16 06:25N 39°32' E 002°11'9 9.9
2014-Nov-16 05:33N 39°41' E 002°10'10 9.8
2014-Nov-16 04:34N 39°50' E 002°10'10 9.9
2014-Nov-16 03:33N 40°00' E 002°10'1010.0
2014-Nov-16 02:33N 40°10' E 002°10'10 9.9
2014-Nov-16 01:33N 40°20' E 002°11'10 9.7
2014-Nov-16 00:33N 40°30' E 002°11'9 9.3
2014-Nov-15 23:33N 40°39' E 002°11'10 9.9
2014-Nov-15 22:33N 40°49' E 002°10'1010.2
2014-Nov-15 21:32N 40°59' E 002°10'19 9.1
2014-Nov-15 19:27N 41°18' E 002°09'0 0.1
2014-Nov-15 17:17N 41°19' E 002°09'  
Track history (hours):
 
Tides and Currents Weather Stations Pressure Air Temp Water Temp Dewpoint Dewpoint Depression Visibility Wind Speed Wind Dir Waves Ship Positions

Fortunia

Last reported at 2014-Nov-25 17:03 UTC. Time now 2014-Nov-26 08:59 UTC.
Position N 41°15' E 002°10'.

Length 121 m; draft 6.1 m.

Type: Ship. MMSI: 304010638.

Date/timePositionNaut miles runAvg speedWind from/ knotsBaromVisibWave heightAir tempDewpointWater temp
2014-Nov-25 17:03N 41°15' E 002°10'611.4
2014-Nov-25 16:33N 41°10' E 002°06'1111.3
2014-Nov-25 15:33N 40°60' E 001°60'1111.5
2014-Nov-25 14:33N 40°50' E 001°53'1211.8
2014-Nov-25 13:33N 40°39' E 001°46'1211.7
2014-Nov-25 12:33N 40°29' E 001°39'1211.7
2014-Nov-25 11:33N 40°18' E 001°32'1111.5
2014-Nov-25 10:34N 40°08' E 001°25'1211.5
2014-Nov-25 09:33N 39°58' E 001°18'1111.5
2014-Nov-25 08:33N 39°48' E 001°11'12511.3
2014-Nov-24 21:27N 37°59' W 000°09'1210.9
2014-Nov-24 20:20N 37°49' W 000°18'810.8
2014-Nov-24 19:33N 37°42' W 000°24'1310.9
2014-Nov-24 18:19N 37°32' W 000°34'810.6
2014-Nov-24 17:33N 37°30' W 000°44'10 9.7
2014-Nov-24 16:34N 37°32' W 000°56'4 4.4
2014-Nov-24 15:33N 37°36' W 000°59'0 0.0
2014-Nov-24 14:26N 37°36' W 000°59'0 0.0
2014-Nov-23 18:32N 37°36' W 000°59'0 0.0
2014-Nov-23 17:32N 37°36' W 000°59'0 0.0
2014-Nov-23 16:32N 37°36' W 000°59'1 0.7
2014-Nov-23 15:33N 37°35' W 000°59'9 8.7
2014-Nov-23 14:33N 37°30' W 000°50'1111.6
2014-Nov-23 13:33N 37°28' W 000°35'1211.6
2014-Nov-23 12:33N 37°26' W 000°21'1311.4
2014-Nov-23 11:22N 37°23' W 000°05'911.2
2014-Nov-23 10:33N 37°21' E 000°07'1210.9
2014-Nov-23 09:29N 37°18' E 000°21'1110.9
2014-Nov-23 08:30N 37°16' E 000°34'1110.9
2014-Nov-23 07:27N 37°14' E 000°48'  
2014-Nov-19 11:33N 36°46' E 003°04'2 0.5
2014-Nov-19 08:04N 36°46' E 003°07'0 0.0
2014-Nov-19 06:33N 36°46' E 003°07'  
2014-Nov-16 10:33N 38°52' E 002°24'1010.2
2014-Nov-16 09:33N 39°01' E 002°20'1010.0
2014-Nov-16 08:33N 39°11' E 002°17'1010.1
2014-Nov-16 07:33N 39°21' E 002°14'1110.0
2014-Nov-16 06:25N 39°32' E 002°11'9 9.9
2014-Nov-16 05:33N 39°41' E 002°10'10 9.8
2014-Nov-16 04:34N 39°50' E 002°10'10 9.9
2014-Nov-16 03:33N 40°00' E 002°10'1010.0
2014-Nov-16 02:33N 40°10' E 002°10'10 9.9
2014-Nov-16 01:33N 40°20' E 002°11'10 9.7
2014-Nov-16 00:33N 40°30' E 002°11'9 9.3
2014-Nov-15 23:33N 40°39' E 002°11'10 9.9
2014-Nov-15 22:33N 40°49' E 002°10'1010.2
2014-Nov-15 21:32N 40°59' E 002°10'19 9.1
2014-Nov-15 19:27N 41°18' E 002°09'0 0.1
2014-Nov-15 17:17N 41°19' E 002°09'  

Dump ship's entire track history